createdAt,value
2022-08-31T00:00:06.912Z,7.85
2022-08-31T00:02:49.537Z,6.55
2022-08-31T00:05:20.136Z,7.28
2022-08-31T00:07:50.351Z,7.18
2022-08-31T00:10:32.717Z,7.15
2022-08-31T00:13:08.687Z,7.10
2022-08-31T00:15:39.286Z,6.63
2022-08-31T00:18:09.724Z,7.35
2022-08-31T00:20:40.757Z,8.02
2022-08-31T00:23:14.333Z,6.97
2022-08-31T00:25:51.572Z,7.68
2022-08-31T00:28:22.864Z,6.50
2022-08-31T00:30:53.562Z,8.30
2022-08-31T00:35:53.868Z,8.75
2022-08-31T00:38:25.077Z,7.00
2022-08-31T00:40:57.964Z,7.88
2022-08-31T00:43:44.117Z,8.13
2022-08-31T00:46:17.825Z,9.13
2022-08-31T00:48:56.732Z,9.18
2022-08-31T00:51:28.272Z,8.35
2022-08-31T00:53:58.806Z,8.02
2022-08-31T00:56:31.804Z,8.10
2022-08-31T00:59:02.894Z,6.25
2022-08-31T01:01:33.355Z,6.85
2022-08-31T01:04:03.742Z,6.15
2022-08-31T01:06:34.515Z,8.25
2022-08-31T01:11:42.337Z,8.00
2022-08-31T01:14:13.744Z,6.82
2022-08-31T01:16:50.141Z,6.20
2022-08-31T01:19:32.341Z,6.75
2022-08-31T01:22:14.500Z,9.48
2022-08-31T01:24:50.473Z,8.40
2022-08-31T01:27:28.656Z,11.30
2022-08-31T01:30:02.386Z,7.88
2022-08-31T01:32:32.709Z,8.90
2022-08-31T01:35:03.003Z,6.88
2022-08-31T01:37:33.182Z,7.75
2022-08-31T01:40:11.312Z,7.45
2022-08-31T01:42:41.991Z,8.60
2022-08-31T01:45:14.680Z,6.88
2022-08-31T01:47:45.086Z,11.07
2022-08-31T01:50:15.436Z,8.02
2022-08-31T01:52:45.657Z,8.27
2022-08-31T01:55:18.487Z,9.32
2022-08-31T01:57:48.775Z,8.13
2022-08-31T02:00:44.242Z,7.25
2022-08-31T02:03:14.718Z,8.73
2022-08-31T02:05:44.951Z,7.72
2022-08-31T02:08:15.441Z,8.18
2022-08-31T02:10:48.670Z,9.13
2022-08-31T02:13:19.677Z,9.70
2022-08-31T02:15:51.298Z,9.98
2022-08-31T02:18:21.524Z,9.13
2022-08-31T02:20:52.963Z,10.05
2022-08-31T02:23:23.612Z,11.30
2022-08-31T02:25:56.390Z,14.10
2022-08-31T02:28:26.781Z,10.30
2022-08-31T02:30:58.393Z,9.85
2022-08-31T02:33:28.674Z,12.05
2022-08-31T02:36:01.221Z,8.68
2022-08-31T02:38:31.615Z,7.72
2022-08-31T02:41:04.609Z,7.82
2022-08-31T02:43:35.320Z,11.50
2022-08-31T02:46:05.801Z,8.15
2022-08-31T02:48:41.886Z,11.57
2022-08-31T02:51:16.372Z,9.00
2022-08-31T02:53:50.883Z,9.80
2022-08-31T02:56:23.958Z,7.80
2022-08-31T02:58:55.325Z,8.82
2022-08-31T03:01:29.356Z,9.40
2022-08-31T03:04:00.997Z,7.70
2022-08-31T03:06:31.937Z,9.45
2022-08-31T03:09:02.792Z,9.07
2022-08-31T03:11:35.864Z,10.07
2022-08-31T03:14:07.140Z,10.25
2022-08-31T03:16:37.431Z,10.68
2022-08-31T03:19:08.111Z,8.95
2022-08-31T03:21:39.746Z,9.70
2022-08-31T03:24:10.544Z,9.70
2022-08-31T03:26:44.234Z,9.95
2022-08-31T03:29:14.850Z,10.38
2022-08-31T03:32:04.616Z,10.85
2022-08-31T03:34:35.655Z,12.80
2022-08-31T03:37:06.037Z,7.95
2022-08-31T03:42:09.913Z,10.60
2022-08-31T03:44:41.678Z,8.80
2022-08-31T03:47:19.780Z,9.15
2022-08-31T03:49:52.138Z,9.18
2022-08-31T03:52:39.901Z,13.73
2022-08-31T03:55:16.820Z,9.18
2022-08-31T03:57:49.725Z,11.98
2022-08-31T04:00:20.269Z,10.18
2022-08-31T04:03:00.210Z,10.43
2022-08-31T04:05:39.483Z,9.57
2022-08-31T04:08:45.171Z,8.95
2022-08-31T04:11:45.500Z,9.02
2022-08-31T04:14:37.214Z,10.88
2022-08-31T04:17:26.195Z,12.93
2022-08-31T04:20:06.933Z,11.88
2022-08-31T04:22:46.578Z,10.07
2022-08-31T04:25:45.872Z,14.75
2022-08-31T04:28:16.151Z,11.32
2022-08-31T04:30:51.303Z,12.70
2022-08-31T04:33:21.543Z,10.02
2022-08-31T04:35:52.000Z,10.48
2022-08-31T04:38:22.982Z,9.40
2022-08-31T04:40:53.272Z,11.27
2022-08-31T04:43:24.322Z,10.02
2022-08-31T04:45:57.634Z,11.57
2022-08-31T04:48:28.040Z,12.68
2022-08-31T04:51:04.516Z,10.77
2022-08-31T04:53:36.401Z,10.77
2022-08-31T04:56:14.579Z,13.05
2022-08-31T04:58:47.942Z,8.90
2022-08-31T05:01:24.234Z,9.65
2022-08-31T05:04:32.961Z,12.10
2022-08-31T05:07:03.282Z,10.65
2022-08-31T05:09:33.632Z,10.15
2022-08-31T05:14:35.413Z,9.43
2022-08-31T05:17:16.757Z,11.45
2022-08-31T05:19:47.416Z,10.88
2022-08-31T05:22:19.427Z,11.90
2022-08-31T05:24:51.907Z,11.35
2022-08-31T05:27:22.084Z,11.63
2022-08-31T05:29:52.258Z,10.50
2022-08-31T05:32:44.385Z,11.85
2022-08-31T05:35:15.426Z,11.40
2022-08-31T05:37:48.426Z,12.40
2022-08-31T05:40:18.743Z,13.95
2022-08-31T05:42:48.982Z,11.57
2022-08-31T05:45:19.611Z,10.18
2022-08-31T05:47:53.805Z,11.25
2022-08-31T05:50:24.078Z,9.95
2022-08-31T05:52:54.254Z,9.35
2022-08-31T05:55:24.468Z,8.75
2022-08-31T05:57:54.650Z,10.90
2022-08-31T06:00:25.575Z,7.63
2022-08-31T06:03:09.126Z,8.32
2022-08-31T06:05:39.331Z,7.78
2022-08-31T06:08:13.207Z,9.23
2022-08-31T06:10:46.684Z,11.95
2022-08-31T06:13:17.586Z,10.15
2022-08-31T06:15:48.139Z,9.40
2022-08-31T06:18:21.040Z,10.82
2022-08-31T06:20:52.172Z,11.45
2022-08-31T06:23:22.819Z,9.15
2022-08-31T06:25:54.697Z,10.77
2022-08-31T06:28:25.118Z,8.13
2022-08-31T06:33:29.822Z,8.48
2022-08-31T06:36:17.519Z,7.80
2022-08-31T06:39:02.693Z,7.70
2022-08-31T06:41:52.762Z,8.15
2022-08-31T06:44:31.106Z,10.85
2022-08-31T06:47:23.486Z,11.32
2022-08-31T06:49:57.429Z,7.90
2022-08-31T06:52:27.772Z,7.70
2022-08-31T06:55:20.727Z,8.80
2022-08-31T06:58:11.886Z,8.32
2022-08-31T07:00:45.803Z,10.80
2022-08-31T07:03:33.384Z,7.63
2022-08-31T07:06:12.910Z,7.72
2022-08-31T07:08:45.062Z,10.35
2022-08-31T07:11:17.487Z,7.70
2022-08-31T07:13:47.744Z,9.18
2022-08-31T07:16:22.211Z,8.45
2022-08-31T07:18:54.832Z,14.10
2022-08-31T07:21:32.046Z,9.15
2022-08-31T07:24:06.102Z,10.40
2022-08-31T07:26:40.942Z,12.18
2022-08-31T07:29:15.019Z,8.18
2022-08-31T07:31:46.901Z,7.68
2022-08-31T07:34:20.978Z,12.00
2022-08-31T07:37:27.027Z,12.50
2022-08-31T07:40:10.704Z,9.63
2022-08-31T07:42:45.124Z,8.80
2022-08-31T07:45:22.633Z,9.77
2022-08-31T07:47:56.389Z,8.05
2022-08-31T07:50:31.852Z,7.68
2022-08-31T07:53:25.046Z,8.75
2022-08-31T07:56:03.787Z,8.93
2022-08-31T07:58:35.526Z,7.25
2022-08-31T08:01:05.821Z,9.13
2022-08-31T08:03:36.684Z,7.03
2022-08-31T08:06:32.443Z,8.05
2022-08-31T08:09:27.049Z,7.60
2022-08-31T08:12:07.763Z,6.35
2022-08-31T08:14:46.868Z,7.27
2022-08-31T08:17:52.632Z,9.15
2022-08-31T08:20:35.396Z,6.75
2022-08-31T08:23:14.729Z,7.63
2022-08-31T08:26:21.281Z,9.45
2022-08-31T08:29:17.744Z,8.77
2022-08-31T08:31:52.329Z,19.33
2022-08-31T08:34:24.158Z,7.63
2022-08-31T08:37:03.855Z,6.43
2022-08-31T08:39:34.079Z,8.07
2022-08-31T08:42:17.732Z,5.93
2022-08-31T08:44:48.375Z,6.45
2022-08-31T08:47:24.004Z,5.78
2022-08-31T08:50:06.589Z,5.10
2022-08-31T08:55:18.409Z,8.60
2022-08-31T08:57:56.155Z,7.05
2022-08-31T09:00:28.807Z,5.55
2022-08-31T09:03:09.602Z,5.78
2022-08-31T09:06:13.008Z,6.20
2022-08-31T09:09:19.899Z,4.45
2022-08-31T09:12:19.096Z,6.13
2022-08-31T09:15:18.033Z,5.82
2022-08-31T09:18:00.002Z,6.13
2022-08-31T09:20:33.946Z,4.60
2022-08-31T09:23:08.097Z,9.05
2022-08-31T09:25:52.674Z,5.93
2022-08-31T09:28:49.681Z,5.13
2022-08-31T09:31:40.649Z,5.88
2022-08-31T09:34:16.906Z,9.05
2022-08-31T09:36:47.570Z,5.90
2022-08-31T09:39:25.051Z,5.25
2022-08-31T09:42:04.776Z,7.60
2022-08-31T09:44:37.974Z,4.72
2022-08-31T09:47:52.991Z,4.35
2022-08-31T09:50:35.785Z,5.07
2022-08-31T09:53:29.276Z,4.47
2022-08-31T09:56:17.016Z,4.35
2022-08-31T09:58:51.377Z,4.30
2022-08-31T10:01:29.184Z,4.85
2022-08-31T10:04:23.562Z,5.82
2022-08-31T10:07:01.894Z,3.58
2022-08-31T10:09:45.145Z,5.07
2022-08-31T10:12:25.961Z,3.90
2022-08-31T10:15:04.179Z,3.55
2022-08-31T10:17:39.925Z,4.93
2022-08-31T10:20:18.724Z,6.72
2022-08-31T10:22:54.352Z,4.13
2022-08-31T10:25:31.225Z,3.42
2022-08-31T10:28:12.702Z,4.40
2022-08-31T10:30:52.810Z,5.25
2022-08-31T10:33:47.266Z,7.05
2022-08-31T10:36:20.789Z,7.00
2022-08-31T10:38:52.783Z,3.20
2022-08-31T10:41:30.947Z,4.22
2022-08-31T10:44:10.059Z,4.55
2022-08-31T10:46:40.419Z,5.35
2022-08-31T10:49:11.771Z,5.95
2022-08-31T10:51:53.269Z,4.70
2022-08-31T10:54:35.617Z,4.88
2022-08-31T10:57:25.918Z,4.40
2022-08-31T11:00:04.696Z,5.50
2022-08-31T11:02:48.875Z,3.38
2022-08-31T11:05:37.455Z,5.07
2022-08-31T11:08:35.326Z,8.98
2022-08-31T11:11:09.183Z,3.70
2022-08-31T11:14:02.276Z,7.78
2022-08-31T11:16:55.269Z,6.15
2022-08-31T11:20:00.208Z,6.28
2022-08-31T11:23:03.013Z,3.60
2022-08-31T11:26:24.219Z,3.17
2022-08-31T11:29:00.242Z,6.78
2022-08-31T11:31:36.137Z,5.88
2022-08-31T11:34:17.456Z,5.60
2022-08-31T11:36:54.907Z,4.82
2022-08-31T11:39:44.562Z,9.27
2022-08-31T11:43:01.536Z,4.63
2022-08-31T11:45:34.706Z,8.95
2022-08-31T11:48:05.048Z,5.25
2022-08-31T11:51:07.796Z,4.78
2022-08-31T11:53:44.573Z,6.97
2022-08-31T11:56:15.359Z,5.32
2022-08-31T11:58:50.368Z,5.80
2022-08-31T12:01:43.213Z,4.57
2022-08-31T12:05:03.172Z,3.78
2022-08-31T12:07:43.214Z,3.00
2022-08-31T12:10:36.983Z,4.05
2022-08-31T12:13:40.595Z,4.38
2022-08-31T12:16:49.835Z,2.95
2022-08-31T12:20:01.897Z,4.07
2022-08-31T12:23:30.436Z,3.58
2022-08-31T12:26:16.593Z,5.78
2022-08-31T12:29:20.094Z,3.47
2022-08-31T12:32:19.979Z,7.85
2022-08-31T12:35:11.570Z,5.63
2022-08-31T12:37:43.033Z,4.28
2022-08-31T12:40:27.153Z,6.82
2022-08-31T12:43:06.111Z,4.47
2022-08-31T12:46:32.136Z,6.95
2022-08-31T12:49:22.219Z,5.85
2022-08-31T12:51:58.050Z,4.63
2022-08-31T12:55:04.469Z,4.13
2022-08-31T12:58:08.890Z,2.35
2022-08-31T13:00:43.600Z,2.47
2022-08-31T13:03:23.420Z,3.35
2022-08-31T13:06:10.120Z,5.00
2022-08-31T13:08:44.766Z,3.85
2022-08-31T13:11:41.200Z,4.05
2022-08-31T13:14:18.739Z,3.83
2022-08-31T13:16:53.719Z,3.80
2022-08-31T13:19:27.579Z,2.88
2022-08-31T13:22:05.239Z,5.00
2022-08-31T13:24:41.326Z,3.33
2022-08-31T13:27:19.760Z,3.42
2022-08-31T13:29:53.476Z,2.63
2022-08-31T13:32:36.331Z,4.93
2022-08-31T13:35:15.275Z,3.63
2022-08-31T13:38:05.069Z,3.42
2022-08-31T13:40:40.790Z,2.30
2022-08-31T13:43:13.677Z,3.25
2022-08-31T13:45:58.677Z,2.67
2022-08-31T13:48:35.151Z,3.70
2022-08-31T13:51:13.609Z,2.60
2022-08-31T13:53:49.611Z,3.22
2022-08-31T13:56:38.194Z,2.78
2022-08-31T13:59:36.190Z,3.22
2022-08-31T14:02:30.854Z,2.55
2022-08-31T14:05:13.061Z,6.32
2022-08-31T14:08:02.221Z,5.80
2022-08-31T14:10:40.729Z,7.03
2022-08-31T14:13:21.570Z,3.65
2022-08-31T14:15:56.472Z,2.92
2022-08-31T14:18:30.636Z,3.42
2022-08-31T14:21:24.055Z,2.20
2022-08-31T14:24:01.500Z,4.32
2022-08-31T14:26:37.595Z,3.33
2022-08-31T14:29:12.482Z,3.40
2022-08-31T14:31:49.474Z,3.22
2022-08-31T14:34:30.479Z,2.88
2022-08-31T14:37:06.591Z,2.55
2022-08-31T14:39:41.837Z,5.07
2022-08-31T14:42:20.007Z,3.60
2022-08-31T14:44:56.853Z,3.78
2022-08-31T14:47:30.468Z,2.33
2022-08-31T14:50:05.942Z,2.33
2022-08-31T14:52:36.983Z,5.03
2022-08-31T14:55:11.245Z,3.38
2022-08-31T14:57:47.042Z,2.45
2022-08-31T15:00:23.423Z,3.88
2022-08-31T15:02:56.738Z,2.65
2022-08-31T15:05:28.530Z,3.50
2022-08-31T15:07:59.708Z,4.57
2022-08-31T15:10:30.586Z,4.68
2022-08-31T15:13:08.753Z,2.20
2022-08-31T15:15:39.310Z,3.40
2022-08-31T15:18:09.993Z,5.38
2022-08-31T15:20:42.012Z,4.60
2022-08-31T15:23:12.264Z,4.10
2022-08-31T15:25:45.287Z,2.88
2022-08-31T15:28:18.599Z,4.40
2022-08-31T15:30:48.898Z,4.38
2022-08-31T15:33:21.661Z,5.53
2022-08-31T15:35:52.079Z,6.85
2022-08-31T15:38:24.223Z,4.40
2022-08-31T15:40:54.440Z,5.18
2022-08-31T15:43:27.314Z,3.80
2022-08-31T15:45:57.676Z,3.33
2022-08-31T15:48:40.873Z,3.70
2022-08-31T15:51:21.947Z,3.50
2022-08-31T15:54:18.392Z,4.57
2022-08-31T15:56:45.526Z,7.00
2022-08-31T15:59:18.332Z,3.78
2022-08-31T16:01:48.552Z,4.55
2022-08-31T16:04:23.465Z,3.42
2022-08-31T16:06:55.642Z,3.63
2022-08-31T16:09:26.076Z,4.75
2022-08-31T16:11:56.423Z,3.05
2022-08-31T16:14:29.561Z,3.10
2022-08-31T16:17:00.167Z,2.97
2022-08-31T16:19:35.434Z,7.47
2022-08-31T16:22:08.198Z,4.00
2022-08-31T16:24:39.837Z,3.55
2022-08-31T16:27:13.114Z,6.57
2022-08-31T16:29:51.757Z,7.07
2022-08-31T16:32:22.457Z,7.38
2022-08-31T16:34:52.742Z,10.85
2022-08-31T16:37:23.982Z,12.50
2022-08-31T16:39:54.326Z,11.23
2022-08-31T16:42:24.974Z,10.07
2022-08-31T16:45:01.978Z,13.43
2022-08-31T16:47:33.038Z,6.97
2022-08-31T16:50:00.921Z,4.22
2022-08-31T16:52:32.563Z,5.70
2022-08-31T16:55:02.800Z,4.75
2022-08-31T16:57:35.328Z,4.32
2022-08-31T17:00:10.154Z,6.13
2022-08-31T17:02:40.381Z,3.35
2022-08-31T17:05:12.979Z,6.97
2022-08-31T17:07:43.639Z,4.90
2022-08-31T17:12:48.437Z,6.72
2022-08-31T17:15:24.092Z,4.47
2022-08-31T17:17:55.240Z,3.88
2022-08-31T17:20:25.440Z,4.13
2022-08-31T17:22:57.279Z,3.60
2022-08-31T17:25:27.504Z,4.22
2022-08-31T17:28:01.040Z,6.47
2022-08-31T17:30:34.609Z,2.75
2022-08-31T17:33:06.039Z,3.63
2022-08-31T17:35:36.967Z,3.10
2022-08-31T17:38:07.241Z,4.82
2022-08-31T17:40:37.536Z,2.92
2022-08-31T17:43:07.868Z,4.80
2022-08-31T17:45:41.302Z,3.05
2022-08-31T17:48:11.584Z,3.50
2022-08-31T17:50:45.036Z,5.55
2022-08-31T17:53:15.218Z,6.25
2022-08-31T17:55:45.399Z,5.20
2022-08-31T17:58:15.726Z,6.03
2022-08-31T18:00:50.664Z,3.25
2022-08-31T18:03:20.918Z,3.78
2022-08-31T18:05:51.954Z,3.85
2022-08-31T18:08:24.551Z,3.88
2022-08-31T18:10:56.669Z,5.35
2022-08-31T18:13:27.064Z,3.65
2022-08-31T18:16:03.234Z,5.18
2022-08-31T18:18:33.535Z,4.22
2022-08-31T18:21:08.366Z,6.00
2022-08-31T18:23:39.024Z,6.10
2022-08-31T18:28:47.792Z,4.15
2022-08-31T18:31:30.816Z,5.60
2022-08-31T18:34:01.293Z,4.55
2022-08-31T18:36:37.210Z,5.65
2022-08-31T18:39:10.657Z,5.75
2022-08-31T18:41:53.542Z,3.30
2022-08-31T18:44:36.202Z,5.50
2022-08-31T18:47:13.189Z,3.22
2022-08-31T18:49:44.795Z,4.53
2022-08-31T18:52:19.342Z,5.07
2022-08-31T18:54:51.925Z,3.95
2022-08-31T18:57:25.057Z,4.05
2022-08-31T18:59:55.433Z,5.93
2022-08-31T19:02:28.358Z,4.07
2022-08-31T19:04:58.824Z,4.68
2022-08-31T19:07:29.141Z,6.10
2022-08-31T19:09:59.341Z,3.80
2022-08-31T19:12:29.511Z,6.10
2022-08-31T19:15:00.174Z,6.25
2022-08-31T19:20:04.110Z,4.22
2022-08-31T19:22:34.345Z,4.18
2022-08-31T19:25:04.922Z,4.47
2022-08-31T19:27:35.390Z,5.28
2022-08-31T19:30:06.144Z,4.13
2022-08-31T19:35:10.749Z,4.97
2022-08-31T19:37:40.899Z,9.60
2022-08-31T19:40:17.947Z,6.35
2022-08-31T19:45:44.965Z,5.60
2022-08-31T19:48:23.932Z,5.45
2022-08-31T19:50:56.968Z,4.88
2022-08-31T19:53:27.956Z,4.95
2022-08-31T19:55:58.372Z,5.13
2022-08-31T19:58:28.628Z,5.95
2022-08-31T20:01:01.142Z,4.10
2022-08-31T20:03:34.446Z,3.78
2022-08-31T20:06:09.608Z,6.70
2022-08-31T20:08:39.956Z,3.88
2022-08-31T20:11:11.239Z,4.13
2022-08-31T20:13:42.966Z,3.45
2022-08-31T20:16:14.880Z,5.35
2022-08-31T20:18:49.108Z,4.32
2022-08-31T20:21:23.538Z,4.70
2022-08-31T20:24:00.757Z,3.95
2022-08-31T20:26:36.113Z,3.80
2022-08-31T20:29:10.960Z,4.28
2022-08-31T20:31:45.708Z,6.68
2022-08-31T20:34:21.958Z,3.63
2022-08-31T20:36:58.545Z,6.28
2022-08-31T20:39:35.411Z,3.88
2022-08-31T20:42:07.353Z,3.28
2022-08-31T20:44:40.256Z,4.68
2022-08-31T20:47:25.400Z,4.47
2022-08-31T20:50:01.267Z,3.97
2022-08-31T20:52:35.143Z,4.68
2022-08-31T20:55:08.671Z,5.32
2022-08-31T20:57:40.977Z,4.65
2022-08-31T21:00:15.846Z,3.22
2022-08-31T21:02:46.720Z,4.03
2022-08-31T21:05:38.502Z,3.53
2022-08-31T21:08:09.466Z,4.95
2022-08-31T21:10:41.184Z,3.20
2022-08-31T21:13:15.683Z,3.70
2022-08-31T21:15:48.687Z,5.70
2022-08-31T21:18:19.741Z,3.45
2022-08-31T21:20:52.796Z,4.97
2022-08-31T21:23:23.650Z,6.18
2022-08-31T21:25:55.299Z,4.28
2022-08-31T21:28:25.612Z,3.80
2022-08-31T21:31:15.513Z,4.28
2022-08-31T21:33:49.745Z,7.35
2022-08-31T21:36:26.817Z,3.90
2022-08-31T21:38:59.409Z,5.88
2022-08-31T21:41:32.315Z,4.38
2022-08-31T21:44:03.271Z,5.28
2022-08-31T21:46:34.768Z,6.00
2022-08-31T21:49:05.899Z,5.63
2022-08-31T21:51:44.028Z,5.68
2022-08-31T21:54:16.403Z,5.63
2022-08-31T21:56:50.666Z,5.72
2022-08-31T21:59:24.640Z,4.90
2022-08-31T22:01:59.200Z,5.65
2022-08-31T22:04:30.223Z,4.47
2022-08-31T22:07:03.640Z,6.28
2022-08-31T22:09:35.048Z,6.07
2022-08-31T22:12:07.543Z,4.25
2022-08-31T22:14:41.495Z,4.38
2022-08-31T22:17:14.434Z,6.90
2022-08-31T22:19:45.074Z,5.03
2022-08-31T22:22:19.600Z,4.90
2022-08-31T22:24:49.925Z,4.35
2022-08-31T22:27:20.102Z,4.85
2022-08-31T22:29:50.519Z,4.35
2022-08-31T22:32:20.934Z,3.60
2022-08-31T22:34:51.212Z,5.10
2022-08-31T22:37:24.055Z,5.55
2022-08-31T22:39:55.408Z,4.55
2022-08-31T22:42:25.645Z,6.63
2022-08-31T22:44:56.239Z,4.03
2022-08-31T22:47:26.502Z,4.22
2022-08-31T22:49:56.945Z,3.72
2022-08-31T22:52:29.761Z,8.30
2022-08-31T22:55:00.146Z,5.35
2022-08-31T22:57:30.293Z,4.38
2022-08-31T23:00:00.669Z,5.63
2022-08-31T23:02:31.410Z,4.22
2022-08-31T23:05:03.519Z,6.38
2022-08-31T23:07:36.806Z,4.60
2022-08-31T23:10:09.488Z,9.73
2022-08-31T23:12:40.092Z,4.80
2022-08-31T23:15:15.162Z,5.03
2022-08-31T23:17:47.768Z,4.30
2022-08-31T23:20:24.507Z,5.97
2022-08-31T23:22:58.115Z,5.72
2022-08-31T23:25:28.475Z,3.90
2022-08-31T23:27:58.912Z,7.78
2022-08-31T23:30:30.354Z,3.42
2022-08-31T23:33:02.345Z,4.20
2022-08-31T23:35:33.699Z,4.38
2022-08-31T23:38:06.607Z,5.38
2022-08-31T23:40:37.113Z,4.35
2022-08-31T23:43:11.023Z,4.78
2022-08-31T23:45:42.050Z,4.95
2022-08-31T23:48:12.742Z,6.18
2022-08-31T23:50:43.130Z,6.10
2022-08-31T23:53:17.510Z,4.72
2022-08-31T23:55:50.748Z,7.82
2022-08-31T23:58:21.034Z,4.32
